createdAt,value
2023-02-16T00:00:45.705Z,56.02
2023-02-16T00:03:20.480Z,55.87
2023-02-16T00:05:49.525Z,55.99
2023-02-16T00:08:17.157Z,56.34
2023-02-16T00:11:05.017Z,56.19
2023-02-16T00:13:44.852Z,56.16
2023-02-16T00:16:24.596Z,56.13
2023-02-16T00:18:52.354Z,56.08
2023-02-16T00:21:20.570Z,56.18
2023-02-16T00:23:48.554Z,56.18
2023-02-16T00:26:25.752Z,56.12
2023-02-16T00:28:59.133Z,56.31
2023-02-16T00:31:33.161Z,56.42
2023-02-16T00:34:22.755Z,56.38
2023-02-16T00:36:49.951Z,56.27
2023-02-16T00:39:17.142Z,56.40
2023-02-16T00:41:50.492Z,56.27
2023-02-16T00:44:29.845Z,56.43
2023-02-16T00:46:57.317Z,56.51
2023-02-16T00:49:24.420Z,56.76
2023-02-16T00:51:51.903Z,56.61
2023-02-16T00:54:21.848Z,56.63
2023-02-16T00:56:49.041Z,56.27
2023-02-16T00:59:21.143Z,56.25
2023-02-16T01:01:49.263Z,56.52
2023-02-16T01:04:23.389Z,56.87
2023-02-16T01:07:09.177Z,56.80
2023-02-16T01:09:55.134Z,56.82
2023-02-16T01:12:22.850Z,56.87
2023-02-16T01:14:54.714Z,56.61
2023-02-16T01:17:24.029Z,56.66
2023-02-16T01:19:54.099Z,56.61
2023-02-16T01:22:21.238Z,56.56
2023-02-16T01:24:48.311Z,56.57
2023-02-16T01:27:15.485Z,56.70
2023-02-16T01:29:45.547Z,56.77
2023-02-16T01:32:13.250Z,56.76
2023-02-16T01:34:40.503Z,56.69
2023-02-16T01:37:15.728Z,56.85
2023-02-16T01:39:44.658Z,56.79
2023-02-16T01:42:24.205Z,56.52
2023-02-16T01:45:18.425Z,56.31
2023-02-16T01:47:54.093Z,56.67
2023-02-16T01:50:25.760Z,57.08
2023-02-16T01:52:58.551Z,56.99
2023-02-16T01:55:29.896Z,57.04
2023-02-16T01:58:24.335Z,57.16
2023-02-16T02:00:55.105Z,57.04
2023-02-16T02:03:45.854Z,56.88
2023-02-16T02:06:20.652Z,57.09
2023-02-16T02:09:05.260Z,56.61
2023-02-16T02:11:52.470Z,56.48
2023-02-16T02:14:32.316Z,56.52
2023-02-16T02:17:05.973Z,56.87
2023-02-16T02:19:53.909Z,56.96
2023-02-16T02:23:10.345Z,56.81
2023-02-16T02:26:12.930Z,56.94
2023-02-16T02:29:07.514Z,57.01
2023-02-16T02:31:54.143Z,57.15
2023-02-16T02:34:30.695Z,56.99
2023-02-16T02:37:25.342Z,56.85
2023-02-16T02:40:01.511Z,57.03
2023-02-16T02:42:47.512Z,56.79
2023-02-16T02:45:42.671Z,56.96
2023-02-16T02:48:10.284Z,56.88
2023-02-16T02:50:37.420Z,56.74
2023-02-16T02:53:16.060Z,56.86
2023-02-16T02:56:07.316Z,56.90
2023-02-16T02:59:12.638Z,56.81
2023-02-16T03:01:44.085Z,56.63
2023-02-16T03:04:13.848Z,56.63
2023-02-16T03:06:49.244Z,56.38
2023-02-16T03:09:17.344Z,56.44
2023-02-16T03:12:05.246Z,56.87
2023-02-16T03:14:46.870Z,57.09
2023-02-16T03:17:36.732Z,56.56
2023-02-16T03:20:27.809Z,56.57
2023-02-16T03:23:15.134Z,56.45
2023-02-16T03:26:02.064Z,56.63
2023-02-16T03:28:50.045Z,56.14
2023-02-16T03:31:28.755Z,56.31
2023-02-16T03:33:56.498Z,56.40
2023-02-16T03:36:30.238Z,56.26
2023-02-16T03:38:58.571Z,56.65
2023-02-16T03:41:27.360Z,56.81
2023-02-16T03:43:54.573Z,57.08
2023-02-16T03:46:22.237Z,57.12
2023-02-16T03:48:49.377Z,57.05
2023-02-16T03:51:16.980Z,57.14
2023-02-16T03:53:44.145Z,57.07
2023-02-16T03:56:11.293Z,57.19
2023-02-16T03:58:38.611Z,56.38
2023-02-16T04:01:06.041Z,56.52
2023-02-16T04:03:34.249Z,56.74
2023-02-16T04:06:01.764Z,57.08
2023-02-16T04:08:29.099Z,57.31
2023-02-16T04:10:57.703Z,57.32
2023-02-16T04:13:24.950Z,57.09
2023-02-16T04:15:52.477Z,56.99
2023-02-16T04:18:19.645Z,57.71
2023-02-16T04:20:46.699Z,57.49
2023-02-16T04:23:13.866Z,57.66
2023-02-16T04:25:40.914Z,57.19
2023-02-16T04:28:07.934Z,57.84
2023-02-16T04:30:35.243Z,57.60
2023-02-16T04:33:02.318Z,57.29
2023-02-16T04:35:29.562Z,57.50
2023-02-16T04:37:57.144Z,57.25
2023-02-16T04:40:24.413Z,57.23
2023-02-16T04:42:51.755Z,57.59
2023-02-16T04:45:19.034Z,57.53
2023-02-16T04:47:46.366Z,57.25
2023-02-16T04:50:13.634Z,57.11
2023-02-16T04:52:41.550Z,57.42
2023-02-16T04:55:10.952Z,57.36
2023-02-16T04:57:39.590Z,57.10
2023-02-16T05:00:09.388Z,57.30
2023-02-16T05:02:36.521Z,57.52
2023-02-16T05:05:03.895Z,57.52
2023-02-16T05:07:31.160Z,57.30
2023-02-16T05:09:58.273Z,57.32
2023-02-16T05:12:43.780Z,57.26
2023-02-16T05:15:11.021Z,57.28
2023-02-16T05:17:38.342Z,57.43
2023-02-16T05:20:06.551Z,57.77
2023-02-16T05:22:34.545Z,57.63
2023-02-16T05:25:02.446Z,57.54
2023-02-16T05:27:31.389Z,57.55
2023-02-16T05:29:59.411Z,57.42
2023-02-16T05:32:26.887Z,57.40
2023-02-16T05:34:54.208Z,57.13
2023-02-16T05:37:21.569Z,56.88
2023-02-16T05:39:48.928Z,56.91
2023-02-16T05:42:16.025Z,57.08
2023-02-16T05:44:43.312Z,56.96
2023-02-16T05:47:11.300Z,57.01
2023-02-16T05:49:38.564Z,56.95
2023-02-16T05:52:05.918Z,56.87
2023-02-16T05:54:33.125Z,57.46
2023-02-16T05:57:02.284Z,57.10
2023-02-16T05:59:29.571Z,57.33
2023-02-16T06:01:56.739Z,57.30
2023-02-16T06:04:24.221Z,57.12
2023-02-16T06:06:51.399Z,57.10
2023-02-16T06:09:18.617Z,57.09
2023-02-16T06:11:46.069Z,56.89
2023-02-16T06:14:20.095Z,56.96
2023-02-16T06:16:50.084Z,56.97
2023-02-16T06:19:18.977Z,57.08
2023-02-16T06:21:47.045Z,57.20
2023-02-16T06:24:15.309Z,57.32
2023-02-16T06:26:42.520Z,57.33
2023-02-16T06:29:10.526Z,57.28
2023-02-16T06:31:37.802Z,57.10
2023-02-16T06:34:05.334Z,57.03
2023-02-16T06:36:34.295Z,57.30
2023-02-16T06:39:01.426Z,57.36
2023-02-16T06:41:40.966Z,56.59
2023-02-16T06:44:14.784Z,56.59
2023-02-16T06:46:44.275Z,56.87
2023-02-16T06:49:18.125Z,56.71
2023-02-16T06:51:46.293Z,56.31
2023-02-16T06:54:13.983Z,56.52
2023-02-16T06:56:41.232Z,56.49
2023-02-16T06:59:08.730Z,56.34
2023-02-16T07:01:35.798Z,56.00
2023-02-16T07:04:03.255Z,56.00
2023-02-16T07:06:31.100Z,56.04
2023-02-16T07:08:59.586Z,56.03
2023-02-16T07:11:26.855Z,55.91
2023-02-16T07:13:53.961Z,55.67
2023-02-16T07:16:21.447Z,55.62
2023-02-16T07:18:48.560Z,55.82
2023-02-16T07:21:16.166Z,55.28
2023-02-16T07:23:43.566Z,55.20
2023-02-16T07:26:10.962Z,55.04
2023-02-16T07:28:38.135Z,55.00
2023-02-16T07:31:11.435Z,54.85
2023-02-16T07:33:39.094Z,54.83
2023-02-16T07:36:08.656Z,54.91
2023-02-16T07:38:36.160Z,54.86
2023-02-16T07:41:07.031Z,54.73
2023-02-16T07:43:36.003Z,54.38
2023-02-16T07:46:03.294Z,53.74
2023-02-16T07:48:30.535Z,53.47
2023-02-16T07:50:58.387Z,53.36
2023-02-16T07:53:25.631Z,52.74
2023-02-16T07:55:52.815Z,52.61
2023-02-16T07:58:29.038Z,52.56
2023-02-16T08:01:14.765Z,51.82
2023-02-16T08:03:43.380Z,51.77
2023-02-16T08:06:11.509Z,51.01
2023-02-16T08:08:39.368Z,50.41
2023-02-16T08:11:25.124Z,49.21
2023-02-16T08:13:53.397Z,49.54
2023-02-16T08:16:25.002Z,49.18
2023-02-16T08:18:53.046Z,48.92
2023-02-16T08:21:23.773Z,48.78
2023-02-16T08:24:06.555Z,48.02
2023-02-16T08:26:40.191Z,48.10
2023-02-16T08:29:13.349Z,47.50
2023-02-16T08:31:41.762Z,47.21
2023-02-16T08:34:10.148Z,46.77
2023-02-16T08:36:38.701Z,46.59
2023-02-16T08:39:12.422Z,46.32
2023-02-16T08:41:39.883Z,46.03
2023-02-16T08:44:08.463Z,45.63
2023-02-16T08:46:39.220Z,44.96
2023-02-16T08:49:08.412Z,45.17
2023-02-16T08:51:38.637Z,44.52
2023-02-16T08:54:11.992Z,44.49
2023-02-16T08:56:39.649Z,44.12
2023-02-16T08:59:06.732Z,43.90
2023-02-16T09:01:33.939Z,44.22
2023-02-16T09:04:01.196Z,44.16
2023-02-16T09:06:28.266Z,44.11
2023-02-16T09:08:57.152Z,44.22
2023-02-16T09:11:25.632Z,43.51
2023-02-16T09:13:53.233Z,43.35
2023-02-16T09:16:23.753Z,43.17
2023-02-16T09:18:52.165Z,43.12
2023-02-16T09:21:25.469Z,43.04
2023-02-16T09:23:55.825Z,42.90
2023-02-16T09:26:25.462Z,42.58
2023-02-16T09:28:53.706Z,42.26
2023-02-16T09:31:29.004Z,42.02
2023-02-16T09:34:06.360Z,41.60
2023-02-16T09:36:34.401Z,41.83
2023-02-16T09:39:02.326Z,42.29
2023-02-16T09:41:41.352Z,42.61
2023-02-16T09:44:29.522Z,42.54
2023-02-16T09:47:00.412Z,42.92
2023-02-16T09:49:42.465Z,42.83
2023-02-16T09:52:40.338Z,42.87
2023-02-16T09:55:18.057Z,43.06
2023-02-16T09:57:55.664Z,42.99
2023-02-16T10:00:35.926Z,43.30
2023-02-16T10:03:21.319Z,43.57
2023-02-16T10:06:24.732Z,43.65
2023-02-16T10:08:58.626Z,43.35
2023-02-16T10:11:48.838Z,43.43
2023-02-16T10:14:24.732Z,43.28
2023-02-16T10:17:06.743Z,43.55
2023-02-16T10:19:54.772Z,43.43
2023-02-16T10:22:36.105Z,43.23
2023-02-16T10:25:24.233Z,42.99
2023-02-16T10:28:18.210Z,42.92
2023-02-16T10:31:21.811Z,42.64
2023-02-16T10:34:03.961Z,42.93
2023-02-16T10:37:11.669Z,42.72
2023-02-16T10:39:59.595Z,42.81
2023-02-16T10:42:50.259Z,42.79
2023-02-16T10:45:35.883Z,42.34
2023-02-16T10:48:03.116Z,41.93
2023-02-16T10:50:38.894Z,42.36
2023-02-16T10:53:17.401Z,42.03
2023-02-16T10:55:44.937Z,42.29
2023-02-16T10:58:29.314Z,42.34
2023-02-16T11:01:14.897Z,41.96
2023-02-16T11:03:55.509Z,41.92
2023-02-16T11:06:29.118Z,41.58
2023-02-16T11:09:01.232Z,41.50
2023-02-16T11:11:39.942Z,40.91
2023-02-16T11:14:25.344Z,40.61
2023-02-16T11:17:12.719Z,40.19
2023-02-16T11:20:02.419Z,39.66
2023-02-16T11:22:37.523Z,38.89
2023-02-16T11:25:23.930Z,37.89
2023-02-16T11:28:05.621Z,37.39
2023-02-16T11:30:40.364Z,36.17
2023-02-16T11:33:26.985Z,34.11
2023-02-16T11:35:55.241Z,32.15
2023-02-16T11:38:37.054Z,32.50
2023-02-16T11:41:07.329Z,32.03
2023-02-16T11:43:42.446Z,30.74
2023-02-16T11:46:20.774Z,29.17
2023-02-16T11:48:48.656Z,29.17
2023-02-16T11:51:30.438Z,27.71
2023-02-16T11:54:05.777Z,27.11
2023-02-16T11:56:36.538Z,27.92
2023-02-16T11:59:20.773Z,26.73
2023-02-16T12:02:00.574Z,26.23
2023-02-16T12:05:08.390Z,26.23
2023-02-16T12:08:32.393Z,25.58
2023-02-16T12:11:14.981Z,25.58
2023-02-16T12:14:08.276Z,25.58
2023-02-16T12:17:05.338Z,26.23
2023-02-16T12:19:49.793Z,25.58
2023-02-16T12:22:29.121Z,24.94
2023-02-16T12:25:19.846Z,24.94
2023-02-16T12:28:00.729Z,25.34
2023-02-16T12:31:11.576Z,24.94
2023-02-16T12:33:53.991Z,25.28
2023-02-16T12:36:52.320Z,24.70
2023-02-16T12:39:56.278Z,24.70
2023-02-16T12:43:09.787Z,24.67
2023-02-16T12:45:43.424Z,24.67
2023-02-16T12:48:37.370Z,26.04
2023-02-16T12:51:16.363Z,26.08
2023-02-16T12:53:53.979Z,24.89
2023-02-16T12:57:04.718Z,24.89
2023-02-16T13:00:18.828Z,27.10
2023-02-16T13:02:58.217Z,26.23
2023-02-16T13:05:36.176Z,26.16
2023-02-16T13:08:18.227Z,26.23
2023-02-16T13:10:58.254Z,24.57
2023-02-16T13:13:33.799Z,24.57
2023-02-16T13:16:24.129Z,24.57
2023-02-16T13:18:57.199Z,24.57
2023-02-16T13:21:51.174Z,25.79
2023-02-16T13:24:51.019Z,25.05
2023-02-16T13:27:37.092Z,25.05
2023-02-16T13:31:15.652Z,25.05
2023-02-16T13:34:02.370Z,25.05
2023-02-16T13:37:05.093Z,25.05
2023-02-16T13:39:38.756Z,23.67
2023-02-16T13:42:36.750Z,24.46
2023-02-16T13:45:21.229Z,23.22
2023-02-16T13:47:49.583Z,23.96
2023-02-16T13:50:23.244Z,24.21
2023-02-16T13:52:53.622Z,24.71
2023-02-16T13:55:38.841Z,24.71
2023-02-16T13:58:12.125Z,25.34
2023-02-16T14:00:49.998Z,24.79
2023-02-16T14:03:22.807Z,25.34
2023-02-16T14:05:56.457Z,22.99
2023-02-16T14:08:31.787Z,22.99
2023-02-16T14:11:01.792Z,22.82
2023-02-16T14:13:48.389Z,22.28
2023-02-16T14:16:18.933Z,22.42
2023-02-16T14:19:19.230Z,22.69
2023-02-16T14:21:49.333Z,22.69
2023-02-16T14:24:44.635Z,22.59
2023-02-16T14:27:13.341Z,22.59
2023-02-16T14:29:59.627Z,22.59
2023-02-16T14:32:38.608Z,22.69
2023-02-16T14:35:20.081Z,22.59
2023-02-16T14:37:59.298Z,23.69
2023-02-16T14:40:35.740Z,24.38
2023-02-16T14:43:24.678Z,24.63
2023-02-16T14:46:29.760Z,24.63
2023-02-16T14:49:19.372Z,24.63
2023-02-16T14:52:16.878Z,25.69
2023-02-16T14:55:27.348Z,25.62
2023-02-16T14:58:13.575Z,26.23
2023-02-16T15:00:55.991Z,25.62
2023-02-16T15:03:26.334Z,25.01
2023-02-16T15:06:06.268Z,25.01
2023-02-16T15:08:40.193Z,26.55
2023-02-16T15:11:33.057Z,28.32
2023-02-16T15:14:09.621Z,28.32
2023-02-16T15:16:40.671Z,28.32
2023-02-16T15:19:15.944Z,28.32
2023-02-16T15:21:44.012Z,31.80
2023-02-16T15:24:23.920Z,33.30
2023-02-16T15:26:57.967Z,33.47
2023-02-16T15:29:29.362Z,34.28
2023-02-16T15:31:59.996Z,35.20
2023-02-16T15:34:46.310Z,35.67
2023-02-16T15:37:30.085Z,36.46
2023-02-16T15:40:25.340Z,37.11
2023-02-16T15:42:56.880Z,37.85
2023-02-16T15:45:38.314Z,38.72
2023-02-16T15:48:29.456Z,39.29
2023-02-16T15:51:15.636Z,39.47
2023-02-16T15:54:28.404Z,39.67
2023-02-16T15:57:11.445Z,40.19
2023-02-16T15:59:47.594Z,40.13
2023-02-16T16:02:19.754Z,40.95
2023-02-16T16:05:01.114Z,41.13
2023-02-16T16:07:35.871Z,41.52
2023-02-16T16:10:15.579Z,41.89
2023-02-16T16:12:44.366Z,42.25
2023-02-16T16:15:23.730Z,42.65
2023-02-16T16:17:53.693Z,42.83
2023-02-16T16:20:42.145Z,43.54
2023-02-16T16:23:15.328Z,44.06
2023-02-16T16:25:46.078Z,44.54
2023-02-16T16:28:32.361Z,44.55
2023-02-16T16:31:17.493Z,44.76
2023-02-16T16:34:07.505Z,45.29
2023-02-16T16:36:54.174Z,45.21
2023-02-16T16:39:29.407Z,45.34
2023-02-16T16:42:20.635Z,45.57
2023-02-16T16:45:00.322Z,45.91
2023-02-16T16:47:40.491Z,45.81
2023-02-16T16:50:10.860Z,46.41
2023-02-16T16:52:43.979Z,46.51
2023-02-16T16:55:34.074Z,46.59
2023-02-16T16:58:08.388Z,46.75
2023-02-16T17:00:39.113Z,46.97
2023-02-16T17:03:08.725Z,47.10
2023-02-16T17:05:38.462Z,47.07
2023-02-16T17:08:06.324Z,47.31
2023-02-16T17:10:35.670Z,47.62
2023-02-16T17:13:03.194Z,47.91
2023-02-16T17:15:45.137Z,47.66
2023-02-16T17:18:17.017Z,47.50
2023-02-16T17:20:45.207Z,47.56
2023-02-16T17:23:15.291Z,47.24
2023-02-16T17:25:43.429Z,47.64
2023-02-16T17:28:12.855Z,47.79
2023-02-16T17:30:41.092Z,47.81
2023-02-16T17:33:09.798Z,47.86
2023-02-16T17:35:39.470Z,47.90
2023-02-16T17:38:09.023Z,47.73
2023-02-16T17:40:36.259Z,47.86
2023-02-16T17:43:10.526Z,47.83
2023-02-16T17:45:37.976Z,47.78
2023-02-16T17:48:05.093Z,48.20
2023-02-16T17:50:33.068Z,48.11
2023-02-16T17:53:00.458Z,48.39
2023-02-16T17:55:27.906Z,48.35
2023-02-16T17:57:56.903Z,48.41
2023-02-16T18:00:24.177Z,48.46
2023-02-16T18:02:51.471Z,48.33
2023-02-16T18:05:18.816Z,48.20
2023-02-16T18:07:46.057Z,48.12
2023-02-16T18:10:33.091Z,48.22
2023-02-16T18:13:00.474Z,47.92
2023-02-16T18:15:27.884Z,47.92
2023-02-16T18:17:55.565Z,47.50
2023-02-16T18:20:23.301Z,47.21
2023-02-16T18:22:50.785Z,47.14
2023-02-16T18:27:45.927Z,47.49
2023-02-16T18:30:14.928Z,47.58
2023-02-16T18:32:42.747Z,47.79
2023-02-16T18:35:10.862Z,48.02
2023-02-16T18:37:38.693Z,47.83
2023-02-16T18:40:08.625Z,47.71
2023-02-16T18:42:37.001Z,48.10
2023-02-16T18:45:06.249Z,48.15
2023-02-16T18:47:33.365Z,48.19
2023-02-16T18:50:00.519Z,47.79
2023-02-16T18:52:27.702Z,47.59
2023-02-16T18:54:54.798Z,47.89
2023-02-16T18:57:22.807Z,48.40
2023-02-16T18:59:50.176Z,48.24
2023-02-16T19:02:17.513Z,48.43
2023-02-16T19:04:44.650Z,48.46
2023-02-16T19:07:11.809Z,48.37
2023-02-16T19:09:39.147Z,47.98
2023-02-16T19:12:06.284Z,48.23
2023-02-16T19:14:33.494Z,48.15
2023-02-16T19:17:00.569Z,48.11
2023-02-16T19:19:30.023Z,48.11
2023-02-16T19:21:57.601Z,48.13
2023-02-16T19:24:25.912Z,48.09
2023-02-16T19:26:53.098Z,48.18
2023-02-16T19:29:20.579Z,48.46
2023-02-16T19:31:48.053Z,48.96
2023-02-16T19:34:15.514Z,48.88
2023-02-16T19:36:42.602Z,48.85
2023-02-16T19:39:12.064Z,48.82
2023-02-16T19:41:43.700Z,48.62
2023-02-16T19:44:14.016Z,48.30
2023-02-16T19:46:42.382Z,47.86
2023-02-16T19:49:15.758Z,47.57
2023-02-16T19:51:44.003Z,47.70
2023-02-16T19:54:11.085Z,47.48
2023-02-16T19:56:40.606Z,47.73
2023-02-16T19:59:08.664Z,47.28
2023-02-16T20:01:36.060Z,47.24
2023-02-16T20:04:03.850Z,47.00
2023-02-16T20:06:34.469Z,48.39
2023-02-16T20:09:02.101Z,48.67
2023-02-16T20:11:32.406Z,48.93
2023-02-16T20:14:01.527Z,48.50
2023-02-16T20:16:30.172Z,48.02
2023-02-16T20:18:59.121Z,47.37
2023-02-16T20:21:29.295Z,46.92
2023-02-16T20:24:03.944Z,46.97
2023-02-16T20:26:39.045Z,46.92
2023-02-16T20:29:08.754Z,47.10
2023-02-16T20:31:56.883Z,47.01
2023-02-16T20:34:27.386Z,47.01
2023-02-16T20:36:55.133Z,46.73
2023-02-16T20:39:23.077Z,46.52
2023-02-16T20:41:50.391Z,46.72
2023-02-16T20:44:17.623Z,46.24
2023-02-16T20:46:45.345Z,46.08
2023-02-16T20:49:13.578Z,45.92
2023-02-16T20:51:41.476Z,45.97
2023-02-16T20:54:08.958Z,46.03
2023-02-16T20:56:36.308Z,45.98
2023-02-16T20:59:03.880Z,46.23
2023-02-16T21:01:38.644Z,46.02
2023-02-16T21:04:08.216Z,46.22
2023-02-16T21:06:37.502Z,46.40
2023-02-16T21:09:07.276Z,46.51
2023-02-16T21:11:35.085Z,46.09
2023-02-16T21:14:03.138Z,46.39
2023-02-16T21:16:31.993Z,46.09
2023-02-16T21:18:59.245Z,45.94
2023-02-16T21:21:26.674Z,46.12
2023-02-16T21:23:54.752Z,46.02
2023-02-16T21:26:24.779Z,46.12
2023-02-16T21:28:52.811Z,45.83
2023-02-16T21:31:24.082Z,45.85
2023-02-16T21:33:52.440Z,45.45
2023-02-16T21:36:24.005Z,45.65
2023-02-16T21:38:52.841Z,45.67
2023-02-16T21:41:25.451Z,45.89
2023-02-16T21:44:01.006Z,45.72
2023-02-16T21:46:33.386Z,45.92
2023-02-16T21:49:01.369Z,45.74
2023-02-16T21:51:38.013Z,45.87
2023-02-16T21:54:15.376Z,45.64
2023-02-16T21:56:53.175Z,45.69
2023-02-16T21:59:22.731Z,45.54
2023-02-16T22:01:51.844Z,45.55
2023-02-16T22:04:22.475Z,45.40
2023-02-16T22:06:51.332Z,45.51
2023-02-16T22:09:21.813Z,45.36
2023-02-16T22:11:49.737Z,45.47
2023-02-16T22:14:17.670Z,45.29
2023-02-16T22:16:47.487Z,45.29
2023-02-16T22:19:18.029Z,45.27
2023-02-16T22:21:47.841Z,45.13
2023-02-16T22:24:17.706Z,45.27
2023-02-16T22:26:49.865Z,45.32
2023-02-16T22:29:18.514Z,45.29
2023-02-16T22:31:47.756Z,45.67
2023-02-16T22:34:19.609Z,45.56
2023-02-16T22:36:47.446Z,45.69
2023-02-16T22:39:19.072Z,45.54
2023-02-16T22:41:46.450Z,45.72
2023-02-16T22:44:15.679Z,45.67
2023-02-16T22:46:43.454Z,45.67
2023-02-16T22:49:10.950Z,45.85
2023-02-16T22:51:38.294Z,45.88
2023-02-16T22:54:05.714Z,45.89
2023-02-16T22:56:34.307Z,45.97
2023-02-16T22:59:01.504Z,45.94
2023-02-16T23:01:31.539Z,46.22
2023-02-16T23:04:01.055Z,45.98
2023-02-16T23:06:32.127Z,45.85
2023-02-16T23:09:05.157Z,45.74
2023-02-16T23:11:33.381Z,45.74
2023-02-16T23:14:00.802Z,46.00
2023-02-16T23:16:28.537Z,46.25
2023-02-16T23:18:58.947Z,46.36
2023-02-16T23:21:30.086Z,46.39
2023-02-16T23:23:58.232Z,46.74
2023-02-16T23:26:30.273Z,46.96
2023-02-16T23:29:01.413Z,46.87
2023-02-16T23:31:35.796Z,46.74
2023-02-16T23:34:05.525Z,46.57
2023-02-16T23:36:35.095Z,46.43
2023-02-16T23:39:10.261Z,46.55
2023-02-16T23:41:37.945Z,46.25
2023-02-16T23:44:06.184Z,46.36
2023-02-16T23:46:33.968Z,46.79
2023-02-16T23:49:01.325Z,46.79
2023-02-16T23:51:28.699Z,46.98
2023-02-16T23:53:56.453Z,46.93
2023-02-16T23:56:28.333Z,46.91
2023-02-16T23:59:00.627Z,47.13
